Time;durP1;ratioP1;P1;durP2;ratioP2;P2;SDS_P1;SDS_P2;PMS_P1;PMS_P2;Temp;Humidity;BMP_temperature;BMP_pressure;BME280_temperature;BME280_humidity;BME280_pressure;Samples;Min_cycle;Max_cycle;Signal;HPM_P1;HPM_P2
2021/03/15 00:00:35;;;;;;;27.35;13.45;;;;;;;29.04;30.25;158797.88;1719905;83;21168;-75
2021/03/15 00:03:08;;;;;;;26.48;13.83;;;;;;;29.08;30.18;158809.84;1719780;83;21318;-74
2021/03/15 00:05:41;;;;;;;24.50;12.45;;;;;;;29.03;30.22;158796.56;1716973;83;21192;-75
2021/03/15 00:08:14;;;;;;;27.27;14.90;;;;;;;29.02;30.27;158793.89;1704756;83;21314;-75
2021/03/15 00:10:47;;;;;;;23.77;13.55;;;;;;;29.10;30.16;158813.88;1708520;83;21198;-74
2021/03/15 00:13:20;;;;;;;24.37;12.98;;;;;;;29.03;30.24;158795.20;1705709;82;21729;-74
2021/03/15 00:15:54;;;;;;;27.73;13.68;;;;;;;28.97;30.24;158779.25;1709566;83;21333;-75
2021/03/15 00:18:26;;;;;;;27.40;14.15;;;;;;;28.97;30.28;158780.56;1708598;82;21321;-75
2021/03/15 00:21:01;;;;;;;26.15;13.13;;;;;;;29.06;30.21;158803.20;1720007;83;21328;-75
2021/03/15 00:23:33;;;;;;;24.00;13.32;;;;;;;29.11;30.17;158817.84;1702012;83;21340;-74
2021/03/15 00:26:05;;;;;;;25.68;13.50;;;;;;;29.10;30.13;158813.88;1714391;83;21344;-76
2021/03/15 00:28:37;;;;;;;24.65;13.22;;;;;;;29.12;30.13;158819.16;1716931;83;21354;-74
2021/03/15 00:31:10;;;;;;;24.57;12.93;;;;;;;29.14;30.12;158825.84;1722936;83;21203;-74
2021/03/15 00:33:42;;;;;;;26.30;14.40;;;;;;;29.05;30.21;158800.53;1722893;83;21812;-75
2021/03/15 00:36:16;;;;;;;24.92;14.20;;;;;;;29.11;30.16;158816.53;1722284;83;21235;-75
2021/03/15 00:38:48;;;;;;;26.27;13.90;;;;;;;29.15;30.14;158828.52;1722981;83;21229;-76
2021/03/15 00:41:21;;;;;;;27.48;14.20;;;;;;;29.29;30.04;158864.44;1694353;84;21201;-74
2021/03/15 00:43:53;;;;;;;26.12;14.53;;;;;;;29.41;29.94;158897.77;1694376;84;21441;-74
2021/03/15 00:46:25;;;;;;;26.42;14.73;;;;;;;29.44;29.88;158907.13;1694194;84;21324;-75
2021/03/15 00:48:58;;;;;;;32.23;15.65;;;;;;;29.40;29.92;158895.09;1715642;83;21348;-75
2021/03/15 00:51:31;;;;;;;26.35;14.47;;;;;;;29.36;29.93;158885.73;1723365;83;21217;-74
2021/03/15 00:54:03;;;;;;;24.40;13.45;;;;;;;29.58;29.83;158944.37;1723121;83;21355;-74
2021/03/15 00:56:35;;;;;;;25.00;13.75;;;;;;;29.60;29.78;158948.41;1723158;83;21194;-74
2021/03/15 00:59:08;;;;;;;25.77;13.75;;;;;;;29.61;29.75;158951.06;1682556;84;21368;-75
2021/03/15 01:01:43;;;;;;;27.00;14.45;;;;;;;29.62;29.77;158955.05;1722363;81;21338;-75
2021/03/15 01:04:16;;;;;;;26.87;14.30;;;;;;;29.66;29.70;158964.36;1722838;81;21334;-74
2021/03/15 01:07:02;;;;;;;25.15;13.38;;;;;;;29.71;29.70;158979.00;1711378;83;21397;-75
2021/03/15 01:09:36;;;;;;;25.30;13.68;;;;;;;29.78;29.63;158996.33;1722910;82;21344;-74
2021/03/15 01:12:10;;;;;;;24.52;13.55;;;;;;;29.90;29.55;159028.30;1745222;82;21406;-74
2021/03/15 01:14:43;;;;;;;28.80;14.95;;;;;;;29.95;29.47;159041.69;1746043;82;21188;-74
2021/03/15 01:17:17;;;;;;;27.17;13.78;;;;;;;29.91;29.42;159032.31;1729663;82;21176;-75
2021/03/15 01:19:51;;;;;;;27.55;14.05;;;;;;;29.90;29.40;159028.30;1718421;83;21357;-75
2021/03/15 01:22:24;;;;;;;27.70;15.18;;;;;;;29.93;29.41;159036.30;1722630;83;21377;-75
2021/03/15 01:24:56;;;;;;;24.12;13.43;;;;;;;29.94;29.43;159038.97;1722882;81;21326;-75
2021/03/15 01:27:28;;;;;;;27.27;14.35;;;;;;;29.91;29.48;159032.31;1722323;83;21365;-75
2021/03/15 01:30:01;;;;;;;26.97;13.83;;;;;;;29.97;29.47;159048.33;1717910;82;21199;-74
2021/03/15 01:32:33;;;;;;;26.93;15.25;;;;;;;30.03;29.36;159064.34;1711965;83;21164;-75
2021/03/15 01:35:07;;;;;;;25.90;13.45;;;;;;;30.25;29.14;159122.97;1731160;83;21371;-76
2021/03/15 01:37:39;;;;;;;27.27;13.83;;;;;;;30.27;29.09;159128.25;1730641;82;21307;-75
2021/03/15 01:40:12;;;;;;;29.18;15.18;;;;;;;30.22;29.12;159113.59;1731056;83;21330;-75
2021/03/15 01:42:45;;;;;;;34.03;17.85;;;;;;;30.15;29.17;159096.27;1731035;83;21322;-75
2021/03/15 01:45:17;;;;;;;30.45;16.23;;;;;;;30.02;29.26;159060.31;1731038;83;21229;-75
2021/03/15 01:47:50;;;;;;;34.58;16.93;;;;;;;30.08;29.27;159076.33;1729414;82;21310;-74
2021/03/15 01:50:22;;;;;;;31.00;15.70;;;;;;;30.13;29.22;159089.62;1731287;82;21709;-75
2021/03/15 01:52:55;;;;;;;35.28;17.30;;;;;;;30.05;29.34;159068.33;1731040;83;21180;-74
2021/03/15 01:55:27;;;;;;;37.48;17.20;;;;;;;30.05;29.33;159068.33;1731228;82;22111;-75
2021/03/15 01:58:00;;;;;;;32.03;15.70;;;;;;;29.98;29.41;159049.64;1728744;83;21695;-74
2021/03/15 02:00:33;;;;;;;32.73;17.05;;;;;;;29.97;29.47;159048.33;1731128;83;21338;-75
2021/03/15 02:03:06;;;;;;;37.45;17.50;;;;;;;29.97;29.47;159048.33;1731132;83;21830;-75
2021/03/15 02:05:42;;;;;;;32.80;17.23;;;;;;;29.87;29.51;159021.66;1713217;83;21699;-76
2021/03/15 02:08:15;;;;;;;33.63;16.55;;;;;;;29.78;29.70;158997.69;1711015;82;21212;-75
2021/03/15 02:10:48;;;;;;;33.55;17.82;;;;;;;29.79;29.70;159000.34;1708153;83;21215;-75
2021/03/15 02:13:55;;;;;;;38.02;18.27;;;;;;;29.72;29.80;158980.36;1708173;84;21350;-74
2021/03/15 02:16:41;;;;;;;35.75;16.52;;;;;;;29.77;29.79;158995.02;1714017;83;21140;-74
2021/03/15 02:19:44;;;;;;;31.48;16.80;;;;;;;29.82;29.80;159007.00;1710109;84;21299;-74
2021/03/15 02:22:38;;;;;;;33.75;17.62;;;;;;;29.82;29.79;159007.00;1708041;84;21825;-74
2021/03/15 02:25:41;;;;;;;33.18;17.17;;;;;;;29.74;29.85;158987.00;1718713;83;21371;-75
2021/03/15 02:28:41;;;;;;;36.50;17.02;;;;;;;29.71;29.92;158977.69;1720531;82;21303;-74
2021/03/15 02:31:39;;;;;;;36.58;16.57;;;;;;;29.93;29.81;159036.30;1714763;83;21347;-74
2021/03/15 02:34:59;;;;;;;30.25;16.50;;;;;;;29.71;29.99;158979.00;1717836;83;21170;-75
2021/03/15 02:37:43;;;;;;;34.00;16.73;;;;;;;30.11;29.69;159084.28;1692471;84;21186;-75
2021/03/15 02:40:40;;;;;;;33.75;16.05;;;;;;;30.03;29.69;159062.98;1668087;85;21328;-74
2021/03/15 02:43:26;;;;;;;33.10;16.12;;;;;;;30.16;29.63;159097.63;1689240;85;21202;-75
2021/03/15 02:46:04;;;;;;;32.55;16.23;;;;;;;30.17;29.64;159101.61;1707459;83;21216;-74
2021/03/15 02:48:37;;;;;;;33.78;17.82;;;;;;;30.27;29.54;159126.94;1717843;83;21683;-74
2021/03/15 02:51:10;;;;;;;30.80;14.90;;;;;;;30.25;29.55;159121.59;1717663;83;21184;-75
2021/03/15 02:53:43;;;;;;;35.75;17.77;;;;;;;30.34;29.49;159146.94;1717618;83;21255;-74
2021/03/15 02:56:22;;;;;;;36.20;17.77;;;;;;;30.39;29.40;159161.59;1717734;83;21223;-75
2021/03/15 02:58:56;;;;;;;35.58;17.10;;;;;;;30.27;29.56;159126.94;1717681;83;21183;-73
2021/03/15 03:01:28;;;;;;;32.78;16.40;;;;;;;30.40;29.44;159164.27;1716703;83;21195;-74
2021/03/15 03:04:01;;;;;;;33.25;17.77;;;;;;;30.46;29.32;159178.92;1717782;83;21267;-74
2021/03/15 03:06:33;;;;;;;37.63;18.07;;;;;;;30.36;29.32;159152.28;1695579;83;21356;-74
2021/03/15 03:09:10;;;;;;;34.95;17.57;;;;;;;30.16;29.39;159097.63;1695351;83;21174;-74
2021/03/15 03:11:43;;;;;;;34.08;18.20;;;;;;;30.14;29.41;159093.66;1717802;82;21209;-74
2021/03/15 03:14:15;;;;;;;34.75;17.02;;;;;;;30.01;29.53;159057.66;1717881;82;21205;-74
2021/03/15 03:16:47;;;;;;;37.20;17.75;;;;;;;29.80;29.79;159001.66;1717845;83;21713;-74
2021/03/15 03:19:19;;;;;;;33.35;17.55;;;;;;;29.81;29.74;159005.63;1718048;83;21329;-74
2021/03/15 03:21:52;;;;;;;34.03;16.65;;;;;;;29.70;29.81;158975.03;1718175;83;21186;-74
2021/03/15 03:24:24;;;;;;;38.67;18.12;;;;;;;29.63;29.94;158956.34;1717973;83;21740;-74
2021/03/15 03:26:57;;;;;;;34.05;17.65;;;;;;;29.64;29.87;158959.02;1717762;83;21649;-74
2021/03/15 03:29:29;;;;;;;35.23;18.23;;;;;;;29.64;29.96;158959.02;1717523;83;21801;-74
2021/03/15 03:32:02;;;;;;;38.53;19.42;;;;;;;29.62;29.90;158953.73;1718656;81;21223;-74
2021/03/15 03:34:35;;;;;;;37.03;17.98;;;;;;;29.56;29.96;158937.72;1722994;83;21343;-74
2021/03/15 03:37:07;;;;;;;41.08;18.90;;;;;;;29.55;29.97;158935.06;1723182;83;21154;-74
2021/03/15 03:39:40;;;;;;;36.42;18.60;;;;;;;29.49;30.00;158920.41;1723028;83;21328;-75
2021/03/15 03:42:13;;;;;;;40.05;19.50;;;;;;;29.49;30.06;158920.41;1723140;83;21368;-74
2021/03/15 03:44:46;;;;;;;39.88;20.52;;;;;;;29.43;30.12;158903.09;1723361;83;21198;-74
2021/03/15 03:47:18;;;;;;;43.10;20.82;;;;;;;29.54;30.16;158933.75;1722942;82;21322;-74
2021/03/15 03:49:51;;;;;;;40.73;20.77;;;;;;;29.86;29.85;159017.67;1722881;83;21342;-74
2021/03/15 03:52:24;;;;;;;38.50;19.20;;;;;;;29.80;29.87;159001.66;1722412;83;21318;-74
2021/03/15 03:55:04;;;;;;;42.10;20.25;;;;;;;29.86;29.83;159017.67;1722578;83;21319;-74
2021/03/15 03:57:37;;;;;;;41.30;19.98;;;;;;;29.61;30.05;158952.38;1723161;82;21847;-74
2021/03/15 04:00:13;;;;;;;42.00;19.32;;;;;;;29.49;30.24;158919.09;1717746;83;21316;-74
2021/03/15 04:02:54;;;;;;;35.05;18.55;;;;;;;29.55;30.20;158935.06;1694112;84;21751;-74
2021/03/15 04:05:31;;;;;;;38.10;19.35;;;;;;;29.56;30.20;158937.72;1707750;83;21379;-74
2021/03/15 04:08:07;;;;;;;37.67;18.17;;;;;;;29.38;30.31;158891.13;1722730;81;21326;-74
2021/03/15 04:10:39;;;;;;;38.23;18.37;;;;;;;29.16;30.48;158831.17;1721180;83;21697;-74
2021/03/15 04:13:12;;;;;;;41.02;17.92;;;;;;;29.04;30.60;158797.88;1713273;83;21262;-74
2021/03/15 04:15:46;;;;;;;37.25;18.07;;;;;;;29.12;30.52;158820.50;1716816;83;21251;-75
2021/03/15 04:18:21;;;;;;;33.83;17.02;;;;;;;28.85;30.76;158747.31;1669731;84;21210;-75
2021/03/15 04:20:58;;;;;;;39.33;18.98;;;;;;;28.90;30.80;158761.94;1691025;83;21156;-75
2021/03/15 04:23:37;;;;;;;39.98;18.60;;;;;;;28.99;30.78;158784.58;1694922;83;21271;-75
2021/03/15 04:26:09;;;;;;;36.25;18.00;;;;;;;29.05;30.77;158801.84;1723034;83;21363;-76
2021/03/15 04:28:41;;;;;;;43.63;18.95;;;;;;;29.08;30.75;158808.53;1723045;83;21324;-75
2021/03/15 04:31:14;;;;;;;42.23;18.87;;;;;;;29.06;30.82;158804.50;1680777;85;21371;-75
2021/03/15 04:33:46;;;;;;;37.50;17.23;;;;;;;29.06;30.80;158804.50;1715754;82;21736;-75
2021/03/15 04:36:18;;;;;;;38.80;18.30;;;;;;;29.03;30.88;158796.56;1715649;82;21381;-76
2021/03/15 04:38:51;;;;;;;44.35;20.82;;;;;;;28.78;31.15;158729.94;1724239;82;21352;-75
2021/03/15 04:41:23;;;;;;;38.70;17.60;;;;;;;29.00;31.05;158788.56;1717563;82;21245;-77
2021/03/15 04:43:56;;;;;;;34.58;18.25;;;;;;;29.07;31.04;158805.86;1695975;83;21225;-76
2021/03/15 04:46:28;;;;;;;39.50;18.55;;;;;;;29.16;30.93;158831.17;1694203;81;21186;-75
2021/03/15 04:49:06;;;;;;;39.05;19.32;;;;;;;29.26;30.86;158856.44;1691978;83;21755;-76
2021/03/15 04:51:37;;;;;;;48.85;20.72;;;;;;;29.36;30.81;158885.73;1693291;83;21403;-78
2021/03/15 04:54:12;;;;;;;41.75;19.80;;;;;;;29.45;30.73;158908.44;1695592;83;21194;-79
2021/03/15 04:56:45;;;;;;;38.98;19.40;;;;;;;29.42;30.69;158901.78;1696295;83;21809;-74
2021/03/15 04:59:17;;;;;;;39.78;18.87;;;;;;;29.30;30.82;158868.42;1693874;83;21194;-76
2021/03/15 05:01:50;;;;;;;37.25;17.37;;;;;;;29.35;30.71;158881.75;1703636;83;21300;-74
2021/03/15 05:04:22;;;;;;;36.77;17.15;;;;;;;29.35;30.65;158883.06;1704671;81;21174;-74
2021/03/15 05:06:54;;;;;;;38.13;17.70;;;;;;;29.30;30.69;158867.11;1716341;83;21237;-74
2021/03/15 05:09:27;;;;;;;35.92;18.42;;;;;;;29.31;30.73;158869.78;1716321;83;21201;-74
2021/03/15 05:12:01;;;;;;;38.85;17.73;;;;;;;29.27;30.75;158859.11;1714333;82;21317;-76
2021/03/15 05:14:34;;;;;;;34.75;17.37;;;;;;;29.32;30.77;158872.44;1705914;84;21403;-75
2021/03/15 05:17:06;;;;;;;35.05;17.37;;;;;;;29.52;30.67;158927.06;1713714;84;21859;-73
2021/03/15 05:19:40;;;;;;;41.83;18.42;;;;;;;29.54;30.60;158933.75;1706000;83;21356;-83
2021/03/15 05:22:13;;;;;;;40.17;19.57;;;;;;;29.56;30.66;158937.72;1700295;83;21324;-78
2021/03/15 05:24:45;;;;;;;38.78;19.42;;;;;;;29.64;30.62;158959.02;1702276;84;21313;-82
2021/03/15 05:27:17;;;;;;;37.50;17.82;;;;;;;29.83;30.42;159010.97;1702327;84;21353;-73
2021/03/15 05:29:49;;;;;;;41.65;18.48;;;;;;;29.88;30.46;159022.95;1710587;83;21344;-75
2021/03/15 05:32:46;;;;;;;46.25;20.77;;;;;;;30.04;30.42;159065.66;1701946;83;21332;-74
2021/03/15 05:36:03;;;;;;;;;;;;;;;30.12;30.37;159086.95;1708451;82;21698;-72
2021/03/15 05:38:35;;;;;;;36.60;15.48;;;;;;;30.26;30.37;159124.28;1689564;83;20267;-72
2021/03/15 05:41:13;;;;;;;37.20;17.27;;;;;;;30.38;30.31;159158.92;1716001;83;21341;-73
2021/03/15 05:44:23;;;;;;;39.53;19.57;;;;;;;30.49;30.26;159186.98;1716216;83;21698;-75
2021/03/15 05:47:44;;;;;;;38.73;19.50;;;;;;;30.58;30.21;159210.97;1659141;85;21899;-76
2021/03/15 05:51:04;;;;;;;41.92;18.95;;;;;;;30.58;30.18;159212.27;1676901;85;21924;-74
2021/03/15 05:54:09;;;;;;;42.83;19.30;;;;;;;30.48;30.19;159184.25;1690735;83;21233;-74
2021/03/15 05:57:20;;;;;;;44.88;20.52;;;;;;;30.19;30.47;159105.64;1716429;83;21340;-76
2021/03/15 06:00:33;;;;;;;38.47;18.40;;;;;;;30.17;30.59;159100.31;1718243;83;21247;-75
2021/03/15 06:03:57;;;;;;;41.98;19.20;;;;;;;30.57;30.28;159209.59;1715498;83;21195;-75
2021/03/15 06:06:37;;;;;;;38.65;18.98;;;;;;;30.72;30.02;159248.28;1730696;82;21707;-75
2021/03/15 06:09:11;;;;;;;44.67;20.00;;;;;;;30.74;30.04;159254.94;1704274;83;21182;-74
2021/03/15 06:11:53;;;;;;;36.00;17.40;;;;;;;30.73;30.09;159252.27;1671742;83;21198;-76
2021/03/15 06:14:26;;;;;;;39.13;18.48;;;;;;;30.72;30.10;159249.59;1713138;83;21340;-76
2021/03/15 06:16:58;;;;;;;37.73;18.35;;;;;;;30.75;30.04;159257.61;1687610;85;21229;-81
2021/03/15 06:19:31;;;;;;;44.38;18.62;;;;;;;30.77;29.98;159262.95;1709762;83;21319;-75
2021/03/15 06:22:03;;;;;;;39.25;18.75;;;;;;;30.75;29.97;159256.25;1690660;83;21321;-83
2021/03/15 06:24:36;;;;;;;46.25;20.05;;;;;;;30.86;29.92;159286.94;1708231;83;21226;-73
2021/03/15 06:27:09;;;;;;;40.35;18.95;;;;;;;30.97;29.87;159316.25;1710405;83;21265;-81
2021/03/15 06:29:43;;;;;;;39.20;19.07;;;;;;;30.96;29.89;159312.28;1712643;83;21234;-74
2021/03/15 06:32:16;;;;;;;41.23;20.20;;;;;;;30.75;30.11;159257.61;1715940;83;21407;-76
2021/03/15 06:34:48;;;;;;;41.92;18.00;;;;;;;31.01;29.91;159325.58;1701869;84;21309;-81
2021/03/15 06:37:21;;;;;;;51.10;21.10;;;;;;;31.01;29.92;159326.94;1705210;83;21320;-79
2021/03/15 06:39:53;;;;;;;42.98;19.85;;;;;;;30.96;29.92;159312.28;1698892;83;21223;-80
2021/03/15 06:42:27;;;;;;;45.78;19.82;;;;;;;30.93;29.86;159305.58;1717276;82;21353;-75
2021/03/15 06:44:59;;;;;;;46.08;19.92;;;;;;;30.86;29.92;159286.94;1719941;83;21738;-75
2021/03/15 06:47:31;;;;;;;44.08;19.02;;;;;;;30.84;30.01;159281.59;1717761;82;21364;-74
2021/03/15 06:50:04;;;;;;;43.55;19.95;;;;;;;30.82;30.01;159276.25;1718330;83;21706;-76
2021/03/15 06:53:00;;;;;;;45.92;21.02;;;;;;;30.71;30.14;159246.92;1716013;83;21379;-77
2021/03/15 06:55:38;;;;;;;41.13;20.10;;;;;;;30.74;30.20;159253.58;1714629;83;21333;-78
2021/03/15 06:58:30;;;;;;;41.55;19.70;;;;;;;30.77;30.15;159262.95;1714157;83;21257;-77
2021/03/15 07:01:19;;;;;;;45.52;21.02;;;;;;;30.67;30.27;159236.25;1711922;83;21383;-75
2021/03/15 07:03:55;;;;;;;47.67;21.37;;;;;;;30.61;30.24;159220.28;1705786;83;21348;-74
2021/03/15 07:06:30;;;;;;;42.38;19.60;;;;;;;30.59;30.32;159213.62;1687180;83;21326;-74
2021/03/15 07:09:16;;;;;;;47.70;20.20;;;;;;;30.74;30.28;159254.94;1694894;83;22018;-76
2021/03/15 07:11:48;;;;;;;45.75;18.95;;;;;;;30.78;30.28;159265.62;1699925;83;21261;-76
2021/03/15 07:14:27;;;;;;;40.28;19.42;;;;;;;30.90;30.24;159297.56;1693576;83;21150;-76
2021/03/15 07:17:02;;;;;;;45.65;20.80;;;;;;;31.02;30.19;159328.25;1711606;83;21356;-75
2021/03/15 07:19:36;;;;;;;42.38;20.82;;;;;;;31.11;30.17;159352.28;1714983;82;21162;-76
2021/03/15 07:22:28;;;;;;;40.75;20.20;;;;;;;31.25;30.12;159390.94;1665773;83;21667;-75
2021/03/15 07:25:17;;;;;;;46.40;21.48;;;;;;;31.34;30.01;159416.30;1715247;82;21195;-75
2021/03/15 07:27:52;;;;;;;41.88;20.32;;;;;;;31.55;29.84;159470.98;1719842;83;21199;-74
2021/03/15 07:30:42;;;;;;;42.58;20.52;;;;;;;31.40;29.89;159430.97;1720511;83;21185;-76
2021/03/15 07:33:20;;;;;;;56.65;23.95;;;;;;;31.44;29.75;159441.64;1717218;82;21332;-78
2021/03/15 07:35:51;;;;;;;54.90;25.20;;;;;;;31.05;29.95;159336.31;1718248;83;21253;-81
2021/03/15 07:38:34;;;;;;;51.02;23.77;;;;;;;31.08;30.00;159344.28;1719724;83;21193;-77
2021/03/15 07:41:18;;;;;;;49.83;22.05;;;;;;;31.12;30.00;159356.31;1721952;83;21198;-78
2021/03/15 07:43:52;;;;;;;51.08;23.05;;;;;;;31.21;29.94;159380.31;1702591;82;21225;-79
2021/03/15 07:46:29;;;;;;;49.90;22.52;;;;;;;31.18;29.97;159370.98;1742968;82;21341;-77
2021/03/15 07:49:01;;;;;;;48.63;22.32;;;;;;;31.27;29.98;159394.97;1736100;82;21195;-78
2021/03/15 07:51:36;;;;;;;46.40;22.27;;;;;;;31.24;30.07;159388.33;1721421;83;21322;-77
2021/03/15 07:54:11;;;;;;;46.85;19.82;;;;;;;31.25;30.11;159390.94;1719671;82;21372;-76
2021/03/15 07:56:44;;;;;;;49.58;20.32;;;;;;;31.20;30.18;159376.28;1720972;81;21170;-78
2021/03/15 07:59:16;;;;;;;45.63;20.30;;;;;;;31.23;30.14;159384.28;1721633;82;21206;-75
2021/03/15 08:01:48;;;;;;;52.53;21.87;;;;;;;31.16;30.20;159366.95;1721663;81;21181;-77
2021/03/15 08:04:22;;;;;;;49.10;20.82;;;;;;;31.09;30.11;159348.31;1721255;81;21197;-77
2021/03/15 08:06:55;;;;;;;49.73;21.95;;;;;;;30.85;30.31;159282.91;1723030;82;21852;-76
2021/03/15 08:09:28;;;;;;;55.30;22.98;;;;;;;30.77;30.40;159261.59;1719907;82;21738;-77
2021/03/15 08:12:07;;;;;;;49.33;21.77;;;;;;;30.60;30.48;159217.61;1719759;83;21214;-76
2021/03/15 08:14:46;;;;;;;47.08;20.68;;;;;;;30.33;30.78;159145.58;1719706;82;21377;-78
2021/03/15 08:17:21;;;;;;;54.90;23.30;;;;;;;30.33;30.87;159145.58;1721027;81;21375;-76
2021/03/15 08:19:54;;;;;;;45.15;21.48;;;;;;;30.39;30.74;159160.23;1721953;81;21204;-76
2021/03/15 08:22:38;;;;;;;49.00;21.37;;;;;;;30.37;30.72;159154.94;1721845;82;21277;-76
2021/03/15 08:25:11;;;;;;;45.45;21.40;;;;;;;30.35;30.90;159149.61;1721869;81;21839;-78
2021/03/15 08:27:46;;;;;;;44.88;19.70;;;;;;;30.44;30.76;159174.89;1721997;82;21324;-77
2021/03/15 08:30:37;;;;;;;40.80;19.45;;;;;;;30.54;30.82;159200.28;1721983;81;21308;-76
2021/03/15 08:33:12;;;;;;;36.98;19.10;;;;;;;30.59;30.82;159213.62;1721845;81;21815;-77
2021/03/15 08:35:44;;;;;;;46.58;22.05;;;;;;;30.73;30.52;159250.91;1696470;83;21704;-78
2021/03/15 08:38:21;;;;;;;37.40;19.48;;;;;;;30.96;30.27;159312.28;1721799;81;21367;-77
2021/03/15 08:40:51;;;;;;;37.42;18.23;;;;;;;31.10;30.12;159349.62;1721871;82;21562;-76
2021/03/15 08:43:39;;;;;;;41.28;19.82;;;;;;;31.34;29.82;159416.30;1721885;81;21343;-78
2021/03/15 08:46:29;;;;;;;40.85;19.35;;;;;;;31.19;29.96;159374.97;1703331;81;21205;-77
2021/03/15 08:49:09;;;;;;;38.90;18.92;;;;;;;31.28;29.98;159400.31;1722130;81;21394;-80
2021/03/15 08:51:46;;;;;;;44.05;19.73;;;;;;;31.45;29.66;159444.31;1721353;82;21384;-81
2021/03/15 08:54:22;;;;;;;39.83;18.50;;;;;;;31.39;29.75;159428.28;1711993;83;21395;-84
2021/03/15 08:56:55;;;;;;;40.12;19.23;;;;;;;31.31;29.88;159406.97;1704889;83;21376;-80
2021/03/15 08:59:33;;;;;;;38.53;19.65;;;;;;;31.34;29.81;159414.98;1721200;82;21209;-77
2021/03/15 09:02:14;;;;;;;32.95;18.85;;;;;;;31.33;29.82;159413.62;1716770;82;21166;-77
2021/03/15 09:04:47;;;;;;;35.15;16.50;;;;;;;31.55;29.76;159470.98;1720513;81;21181;-79
2021/03/15 09:07:40;;;;;;;36.48;18.35;;;;;;;32.06;29.53;159607.13;1718637;82;21193;-79
2021/03/15 09:10:35;;;;;;;33.05;16.93;;;;;;;32.50;29.22;159727.25;1715872;82;21919;-79
2021/03/15 09:13:21;;;;;;;34.80;17.20;;;;;;;32.86;29.16;159823.42;1716316;81;21352;-76
2021/03/15 09:15:56;;;;;;;34.25;16.82;;;;;;;32.96;29.10;159848.75;1724092;82;21201;-78
2021/03/15 09:18:51;;;;;;;32.98;17.12;;;;;;;33.22;28.93;159920.92;1717586;81;21381;-77
2021/03/15 09:21:30;;;;;;;30.95;16.62;;;;;;;33.51;28.63;159997.03;1715186;81;21153;-78
2021/03/15 09:24:09;;;;;;;34.45;17.10;;;;;;;33.64;28.49;160031.81;1721323;81;21174;-78
2021/03/15 09:26:48;;;;;;;;;;;;;;;33.58;28.45;160017.08;1721470;82;21186;-78
2021/03/15 09:29:24;;;;;;;35.70;17.37;;;;;;;33.58;28.37;160017.08;1721683;81;20214;-77
2021/03/15 09:32:12;;;;;;;32.03;18.07;;;;;;;33.57;28.29;160013.03;1736350;81;21388;-78
2021/03/15 09:34:59;;;;;;;30.32;17.02;;;;;;;32.55;29.08;159740.58;1717286;82;21185;-79
2021/03/15 09:37:34;;;;;;;31.33;17.12;;;;;;;32.03;29.47;159599.09;1715818;82;21752;-78
2021/03/15 09:40:30;;;;;;;31.50;16.15;;;;;;;31.71;29.79;159513.73;1719698;82;21231;-77
2021/03/15 09:43:56;;;;;;;29.00;16.37;;;;;;;31.45;29.91;159444.31;1721922;83;21177;-77
2021/03/15 09:47:02;;;;;;;28.42;15.53;;;;;;;31.18;30.17;159372.30;1711838;81;21687;-78
2021/03/15 09:54:01;;;;;;;36.33;18.75;;;;;;;30.95;30.45;159310.91;1708204;81;21164;-79
2021/03/15 09:57:20;;;;;;;40.38;19.90;;;;;;;30.76;30.49;159260.28;1706069;83;21247;-77
2021/03/15 10:00:34;;;;;;;38.60;20.57;;;;;;;30.55;30.90;159204.31;1712082;81;21188;-77
2021/03/15 10:03:26;;;;;;;37.25;20.30;;;;;;;30.54;30.94;159200.28;1724054;83;21196;-77
2021/03/15 10:06:21;;;;;;;30.05;16.32;;;;;;;30.40;30.97;159164.27;1710032;82;21857;-78
2021/03/15 10:09:05;;;;;;;26.75;15.05;;;;;;;30.32;31.05;159142.91;1710249;81;21346;-76
2021/03/15 10:12:01;;;;;;;20.35;11.97;;;;;;;30.27;31.20;159126.94;1728273;83;21192;-77
2021/03/15 10:14:37;;;;;;;23.38;12.68;;;;;;;30.22;31.30;159114.95;1728160;81;21335;-76
2021/03/15 10:17:22;;;;;;;22.48;10.95;;;;;;;30.26;31.40;159124.28;1709367;81;21366;-77
2021/03/15 10:20:00;;;;;;;20.23;11.55;;;;;;;30.20;31.40;159108.31;1725761;82;21268;-78
2021/03/15 10:22:37;;;;;;;16.57;9.60;;;;;;;29.99;31.58;159052.31;1730581;82;21179;-79
2021/03/15 10:25:14;;;;;;;15.58;9.48;;;;;;;29.95;31.66;159041.69;1723858;81;21337;-79
2021/03/15 10:27:58;;;;;;;14.38;8.90;;;;;;;29.96;31.71;159044.36;1722698;81;21311;-83
2021/03/15 10:30:35;;;;;;;14.00;8.25;;;;;;;30.12;31.49;159088.31;1713303;81;21362;-78
2021/03/15 10:33:09;;;;;;;17.12;9.13;;;;;;;30.13;31.58;159090.98;1730206;81;21846;-79
2021/03/15 10:35:44;;;;;;;14.87;8.28;;;;;;;30.20;31.62;159108.31;1672108;83;21306;-78
2021/03/15 10:38:22;;;;;;;15.20;8.55;;;;;;;30.09;31.53;159079.00;1724277;81;21342;-77
2021/03/15 10:41:06;;;;;;;14.38;7.90;;;;;;;29.73;32.04;158984.34;1722337;82;21867;-78
2021/03/15 10:44:14;;;;;;;12.35;7.58;;;;;;;30.20;31.61;159108.31;1720226;82;22043;-76
2021/03/15 10:47:11;;;;;;;9.15;5.97;;;;;;;30.09;31.73;159079.00;1720312;81;21267;-76
2021/03/15 10:49:56;;;;;;;8.60;5.78;;;;;;;30.04;31.63;159066.97;1719299;81;21379;-80
2021/03/15 10:52:43;;;;;;;8.48;5.60;;;;;;;30.12;31.55;159086.95;1718126;81;21213;-78
2021/03/15 10:55:29;;;;;;;10.43;6.33;;;;;;;30.14;31.52;159092.30;1718964;82;21195;-76
2021/03/15 10:58:12;;;;;;;15.83;8.35;;;;;;;29.90;31.72;159029.66;1721685;83;21364;-78
2021/03/15 11:00:54;;;;;;;9.98;5.95;;;;;;;30.07;31.61;159073.66;1724444;82;21820;-77
2021/03/15 11:04:15;;;;;;;14.53;8.25;;;;;;;30.13;31.53;159089.62;1734388;80;21338;-78
2021/03/15 11:07:40;;;;;;;12.63;6.65;;;;;;;29.59;32.01;158945.73;1719900;81;21229;-76
2021/03/15 11:11:04;;;;;;;14.65;7.50;;;;;;;29.34;32.45;158879.09;1709883;82;21171;-76
2021/03/15 11:15:24;;;;;;;16.15;9.28;;;;;;;29.37;32.38;158888.41;1718431;81;21697;-79
2021/03/15 11:18:43;;;;;;;13.10;7.87;;;;;;;29.52;32.26;158927.06;1669694;84;22178;-76
2021/03/15 11:21:36;;;;;;;12.35;7.78;;;;;;;29.75;32.18;158988.31;1676486;83;21297;-79
2021/03/15 11:24:28;;;;;;;12.60;7.08;;;;;;;29.97;32.13;159047.03;1679286;83;21879;-81
2021/03/15 11:27:08;;;;;;;12.30;7.17;;;;;;;30.31;31.87;159138.94;1698817;82;21367;-78
2021/03/15 11:29:45;;;;;;;12.80;7.78;;;;;;;30.42;31.66;159169.61;1717978;82;21205;-79
2021/03/15 11:32:25;;;;;;;11.97;8.25;;;;;;;30.51;31.74;159192.27;1718661;83;21344;-77
2021/03/15 11:35:24;;;;;;;11.90;7.72;;;;;;;30.57;31.63;159209.59;1719284;82;21217;-78
2021/03/15 11:38:10;;;;;;;12.35;8.15;;;;;;;30.94;31.30;159306.94;1714016;81;21212;-77
2021/03/15 11:40:45;;;;;;;16.45;9.45;;;;;;;30.74;31.47;159253.58;1721179;83;21338;-78
2021/03/15 11:43:19;;;;;;;23.55;11.93;;;;;;;30.75;31.47;159257.61;1719246;81;21822;-84
2021/03/15 11:45:53;;;;;;;22.60;12.60;;;;;;;30.61;31.32;159220.28;1719551;82;21175;-82
2021/03/15 11:48:26;;;;;;;21.30;12.30;;;;;;;30.50;31.38;159189.59;1701081;83;21184;-78
2021/03/15 11:51:12;;;;;;;21.02;12.35;;;;;;;30.66;31.18;159232.27;1683894;84;21866;-80
2021/03/15 11:54:09;;;;;;;26.77;12.63;;;;;;;30.30;31.51;159134.95;1677237;83;21878;-80
2021/03/15 11:57:11;;;;;;;26.07;16.23;;;;;;;30.17;31.58;159100.31;1698034;83;21157;-76
2021/03/15 11:59:52;;;;;;;22.17;13.78;;;;;;;30.34;31.28;159148.25;1672590;83;22333;-80
2021/03/15 12:02:43;;;;;;;23.52;13.62;;;;;;;30.00;31.66;159054.97;1710965;83;21182;-77
2021/03/15 12:05:44;;;;;;;25.85;13.65;;;;;;;30.19;31.45;159105.64;1718867;83;21190;-78
2021/03/15 12:08:20;;;;;;;25.72;14.38;;;;;;;30.18;31.48;159102.97;1711831;83;21179;-79
2021/03/15 12:11:05;;;;;;;25.55;13.83;;;;;;;30.10;31.48;159081.63;1697090;83;21201;-77
2021/03/15 12:14:05;;;;;;;26.87;14.70;;;;;;;29.63;31.92;158957.72;1699104;83;21363;-76
2021/03/15 12:16:42;;;;;;;25.92;15.10;;;;;;;29.71;31.96;158977.69;1703030;82;21878;-80